sensor_id;sensor_type;location;lat;lon;timestamp;P1;durP1;ratioP1;P2;durP2;ratioP2
53287;SDS011;39172;45.550;12.072;2024-03-02T00:04:04;7.05;;;5.35;;
53287;SDS011;39172;45.550;12.072;2024-03-02T00:10:11;6.28;;;5.47;;
53287;SDS011;39172;45.550;12.072;2024-03-02T00:16:12;11.05;;;6.82;;
53287;SDS011;39172;45.550;12.072;2024-03-02T00:22:13;7.95;;;5.90;;
53287;SDS011;39172;45.550;12.072;2024-03-02T00:28:16;7.40;;;5.40;;
53287;SDS011;39172;45.550;12.072;2024-03-02T00:34:18;7.35;;;5.70;;
53287;SDS011;39172;45.550;12.072;2024-03-02T00:40:19;6.60;;;5.28;;
53287;SDS011;39172;45.550;12.072;2024-03-02T00:46:20;8.45;;;5.80;;
53287;SDS011;39172;45.550;12.072;2024-03-02T00:52:21;10.95;;;6.45;;
53287;SDS011;39172;45.550;12.072;2024-03-02T00:58:22;9.27;;;6.32;;
53287;SDS011;39172;45.550;12.072;2024-03-02T01:04:23;6.88;;;5.10;;
53287;SDS011;39172;45.550;12.072;2024-03-02T01:10:24;6.40;;;5.25;;
53287;SDS011;39172;45.550;12.072;2024-03-02T01:16:26;10.88;;;7.10;;
53287;SDS011;39172;45.550;12.072;2024-03-02T01:22:27;6.93;;;5.57;;
53287;SDS011;39172;45.550;12.072;2024-03-02T01:28:28;5.45;;;4.75;;
53287;SDS011;39172;45.550;12.072;2024-03-02T01:34:29;7.05;;;4.60;;
53287;SDS011;39172;45.550;12.072;2024-03-02T01:40:30;4.72;;;4.20;;
53287;SDS011;39172;45.550;12.072;2024-03-02T01:46:31;7.60;;;4.80;;
53287;SDS011;39172;45.550;12.072;2024-03-02T01:52:32;9.35;;;4.97;;
53287;SDS011;39172;45.550;12.072;2024-03-02T01:58:33;5.70;;;3.90;;
53287;SDS011;39172;45.550;12.072;2024-03-02T02:04:34;4.10;;;3.45;;
53287;SDS011;39172;45.550;12.072;2024-03-02T02:10:34;3.40;;;3.10;;
53287;SDS011;39172;45.550;12.072;2024-03-02T02:16:35;7.85;;;4.30;;
53287;SDS011;39172;45.550;12.072;2024-03-02T02:22:36;9.07;;;4.72;;
53287;SDS011;39172;45.550;12.072;2024-03-02T02:28:37;6.53;;;4.00;;
53287;SDS011;39172;45.550;12.072;2024-03-02T02:34:39;6.05;;;2.90;;
53287;SDS011;39172;45.550;12.072;2024-03-02T02:40:40;4.68;;;3.75;;
53287;SDS011;39172;45.550;12.072;2024-03-02T02:46:41;5.40;;;3.92;;
53287;SDS011;39172;45.550;12.072;2024-03-02T02:52:42;7.47;;;4.40;;
53287;SDS011;39172;45.550;12.072;2024-03-02T02:58:43;7.90;;;3.90;;
53287;SDS011;39172;45.550;12.072;2024-03-02T03:04:44;3.95;;;2.25;;
53287;SDS011;39172;45.550;12.072;2024-03-02T03:10:45;5.72;;;3.45;;
53287;SDS011;39172;45.550;12.072;2024-03-02T03:16:46;5.35;;;3.90;;
53287;SDS011;39172;45.550;12.072;2024-03-02T03:22:49;7.30;;;2.97;;
53287;SDS011;39172;45.550;12.072;2024-03-02T03:28:50;6.97;;;3.55;;
53287;SDS011;39172;45.550;12.072;2024-03-02T03:34:51;4.75;;;2.30;;
53287;SDS011;39172;45.550;12.072;2024-03-02T03:40:52;5.60;;;3.00;;
53287;SDS011;39172;45.550;12.072;2024-03-02T03:46:53;3.30;;;3.00;;
53287;SDS011;39172;45.550;12.072;2024-03-02T03:52:54;6.68;;;3.67;;
53287;SDS011;39172;45.550;12.072;2024-03-02T03:58:55;5.28;;;3.92;;
53287;SDS011;39172;45.550;12.072;2024-03-02T04:04:55;5.07;;;3.50;;
53287;SDS011;39172;45.550;12.072;2024-03-02T04:10:56;3.55;;;2.00;;
53287;SDS011;39172;45.550;12.072;2024-03-02T04:16:57;3.53;;;3.15;;
53287;SDS011;39172;45.550;12.072;2024-03-02T04:22:58;5.75;;;3.50;;
53287;SDS011;39172;45.550;12.072;2024-03-02T04:28:59;6.32;;;3.60;;
53287;SDS011;39172;45.550;12.072;2024-03-02T04:35:00;4.57;;;3.40;;
53287;SDS011;39172;45.550;12.072;2024-03-02T04:41:01;3.40;;;3.10;;
53287;SDS011;39172;45.550;12.072;2024-03-02T04:47:02;3.17;;;2.80;;
53287;SDS011;39172;45.550;12.072;2024-03-02T04:53:03;3.38;;;2.90;;
53287;SDS011;39172;45.550;12.072;2024-03-02T04:59:04;6.68;;;3.60;;
53287;SDS011;39172;45.550;12.072;2024-03-02T05:05:05;3.78;;;3.15;;
53287;SDS011;39172;45.550;12.072;2024-03-02T05:11:06;4.70;;;3.10;;
53287;SDS011;39172;45.550;12.072;2024-03-02T05:17:26;4.75;;;3.22;;
53287;SDS011;39172;45.550;12.072;2024-03-02T05:23:27;4.75;;;3.35;;
53287;SDS011;39172;45.550;12.072;2024-03-02T05:29:27;4.40;;;3.58;;
53287;SDS011;39172;45.550;12.072;2024-03-02T05:35:28;4.63;;;3.25;;
53287;SDS011;39172;45.550;12.072;2024-03-02T05:41:29;3.65;;;2.97;;
53287;SDS011;39172;45.550;12.072;2024-03-02T05:47:30;3.33;;;3.03;;
53287;SDS011;39172;45.550;12.072;2024-03-02T05:53:31;4.13;;;3.13;;
53287;SDS011;39172;45.550;12.072;2024-03-02T05:59:32;4.55;;;3.75;;
53287;SDS011;39172;45.550;12.072;2024-03-02T06:05:33;3.75;;;1.98;;
53287;SDS011;39172;45.550;12.072;2024-03-02T06:11:35;3.83;;;2.20;;
53287;SDS011;39172;45.550;12.072;2024-03-02T06:17:37;4.50;;;3.45;;
53287;SDS011;39172;45.550;12.072;2024-03-02T06:23:37;3.95;;;3.38;;
53287;SDS011;39172;45.550;12.072;2024-03-02T06:29:38;6.05;;;4.40;;
53287;SDS011;39172;45.550;12.072;2024-03-02T06:35:39;5.70;;;4.00;;
53287;SDS011;39172;45.550;12.072;2024-03-02T06:41:41;4.43;;;4.03;;
53287;SDS011;39172;45.550;12.072;2024-03-02T06:47:43;4.47;;;4.05;;
53287;SDS011;39172;45.550;12.072;2024-03-02T06:53:44;5.20;;;4.38;;
53287;SDS011;39172;45.550;12.072;2024-03-02T06:59:45;7.68;;;5.00;;
53287;SDS011;39172;45.550;12.072;2024-03-02T07:05:46;6.90;;;4.60;;
53287;SDS011;39172;45.550;12.072;2024-03-02T07:11:49;6.38;;;4.68;;
53287;SDS011;39172;45.550;12.072;2024-03-02T07:17:50;6.70;;;3.50;;
53287;SDS011;39172;45.550;12.072;2024-03-02T07:23:51;5.43;;;3.40;;
53287;SDS011;39172;45.550;12.072;2024-03-02T07:29:52;7.13;;;3.20;;
53287;SDS011;39172;45.550;12.072;2024-03-02T07:35:56;7.18;;;3.42;;
53287;SDS011;39172;45.550;12.072;2024-03-02T07:41:57;5.35;;;4.20;;
53287;SDS011;39172;45.550;12.072;2024-03-02T07:47:58;5.55;;;4.30;;
53287;SDS011;39172;45.550;12.072;2024-03-02T07:53:59;5.72;;;4.55;;
53287;SDS011;39172;45.550;12.072;2024-03-02T08:00:00;7.82;;;5.00;;
53287;SDS011;39172;45.550;12.072;2024-03-02T08:06:01;6.47;;;4.78;;
53287;SDS011;39172;45.550;12.072;2024-03-02T08:12:02;6.13;;;3.00;;
53287;SDS011;39172;45.550;12.072;2024-03-02T08:18:03;6.55;;;4.70;;
53287;SDS011;39172;45.550;12.072;2024-03-02T08:24:05;8.43;;;4.18;;
53287;SDS011;39172;45.550;12.072;2024-03-02T08:30:06;7.78;;;3.83;;
53287;SDS011;39172;45.550;12.072;2024-03-02T08:36:09;8.68;;;4.30;;
53287;SDS011;39172;45.550;12.072;2024-03-02T08:42:10;8.20;;;4.15;;
53287;SDS011;39172;45.550;12.072;2024-03-02T08:48:11;10.07;;;4.70;;
53287;SDS011;39172;45.550;12.072;2024-03-02T08:54:12;11.35;;;4.25;;
53287;SDS011;39172;45.550;12.072;2024-03-02T09:00:13;9.32;;;3.90;;
53287;SDS011;39172;45.550;12.072;2024-03-02T09:06:15;10.40;;;5.03;;
53287;SDS011;39172;45.550;12.072;2024-03-02T09:12:17;7.40;;;3.92;;
53287;SDS011;39172;45.550;12.072;2024-03-02T09:18:19;7.47;;;3.00;;
53287;SDS011;39172;45.550;12.072;2024-03-02T09:24:20;9.07;;;4.25;;
53287;SDS011;39172;45.550;12.072;2024-03-02T09:30:20;10.80;;;5.38;;
53287;SDS011;39172;45.550;12.072;2024-03-02T09:36:22;13.32;;;6.13;;
53287;SDS011;39172;45.550;12.072;2024-03-02T09:42:23;11.48;;;5.28;;
53287;SDS011;39172;45.550;12.072;2024-03-02T09:48:24;8.27;;;3.75;;
53287;SDS011;39172;45.550;12.072;2024-03-02T09:54:25;13.15;;;5.47;;
53287;SDS011;39172;45.550;12.072;2024-03-02T10:00:26;15.75;;;6.88;;
53287;SDS011;39172;45.550;12.072;2024-03-02T10:06:28;32.58;;;10.93;;
53287;SDS011;39172;45.550;12.072;2024-03-02T10:12:29;22.77;;;10.70;;
53287;SDS011;39172;45.550;12.072;2024-03-02T10:18:30;13.55;;;6.32;;
53287;SDS011;39172;45.550;12.072;2024-03-02T10:30:39;10.40;;;4.90;;
53287;SDS011;39172;45.550;12.072;2024-03-02T10:36:41;8.18;;;3.85;;
53287;SDS011;39172;45.550;12.072;2024-03-02T10:42:42;10.13;;;4.40;;
53287;SDS011;39172;45.550;12.072;2024-03-02T10:48:43;22.25;;;7.85;;
53287;SDS011;39172;45.550;12.072;2024-03-02T10:54:46;10.88;;;5.05;;
53287;SDS011;39172;45.550;12.072;2024-03-02T11:00:47;6.53;;;3.30;;
53287;SDS011;39172;45.550;12.072;2024-03-02T11:06:48;5.72;;;3.33;;
53287;SDS011;39172;45.550;12.072;2024-03-02T11:12:55;6.10;;;3.13;;
53287;SDS011;39172;45.550;12.072;2024-03-02T11:18:56;6.95;;;3.78;;
53287;SDS011;39172;45.550;12.072;2024-03-02T11:24:59;6.22;;;3.10;;
53287;SDS011;39172;45.550;12.072;2024-03-02T11:31:00;4.10;;;3.40;;
53287;SDS011;39172;45.550;12.072;2024-03-02T11:37:01;3.10;;;1.98;;
53287;SDS011;39172;45.550;12.072;2024-03-02T11:43:02;2.55;;;2.35;;
53287;SDS011;39172;45.550;12.072;2024-03-02T11:49:05;3.63;;;1.92;;
53287;SDS011;39172;45.550;12.072;2024-03-02T11:55:06;4.97;;;3.40;;
53287;SDS011;39172;45.550;12.072;2024-03-02T12:01:08;3.40;;;2.20;;
53287;SDS011;39172;45.550;12.072;2024-03-02T12:07:09;3.00;;;1.95;;
53287;SDS011;39172;45.550;12.072;2024-03-02T12:13:10;3.60;;;3.30;;
53287;SDS011;39172;45.550;12.072;2024-03-02T12:19:11;4.35;;;3.72;;
53287;SDS011;39172;45.550;12.072;2024-03-02T12:25:12;6.32;;;4.63;;
53287;SDS011;39172;45.550;12.072;2024-03-02T12:31:14;6.90;;;5.50;;
53287;SDS011;39172;45.550;12.072;2024-03-02T12:37:16;5.20;;;4.60;;
53287;SDS011;39172;45.550;12.072;2024-03-02T12:43:17;4.72;;;3.20;;
53287;SDS011;39172;45.550;12.072;2024-03-02T12:49:21;5.13;;;4.53;;
53287;SDS011;39172;45.550;12.072;2024-03-02T12:55:23;6.18;;;5.20;;
53287;SDS011;39172;45.550;12.072;2024-03-02T13:01:24;9.85;;;6.90;;
53287;SDS011;39172;45.550;12.072;2024-03-02T13:07:25;7.93;;;5.85;;
53287;SDS011;39172;45.550;12.072;2024-03-02T13:13:26;5.53;;;4.95;;
53287;SDS011;39172;45.550;12.072;2024-03-02T13:19:27;5.20;;;4.70;;
53287;SDS011;39172;45.550;12.072;2024-03-02T13:25:31;4.93;;;4.40;;
53287;SDS011;39172;45.550;12.072;2024-03-02T13:31:32;6.63;;;5.40;;
53287;SDS011;39172;45.550;12.072;2024-03-02T13:37:34;6.40;;;5.28;;
53287;SDS011;39172;45.550;12.072;2024-03-02T13:43:34;4.70;;;4.20;;
53287;SDS011;39172;45.550;12.072;2024-03-02T13:49:36;5.15;;;4.55;;
53287;SDS011;39172;45.550;12.072;2024-03-02T13:55:37;6.93;;;5.55;;
53287;SDS011;39172;45.550;12.072;2024-03-02T14:01:38;6.60;;;5.90;;
53287;SDS011;39172;45.550;12.072;2024-03-02T14:07:39;8.85;;;7.72;;
53287;SDS011;39172;45.550;12.072;2024-03-02T14:13:41;15.30;;;7.15;;
53287;SDS011;39172;45.550;12.072;2024-03-02T14:19:42;8.88;;;7.53;;
53287;SDS011;39172;45.550;12.072;2024-03-02T14:25:43;10.07;;;7.03;;
53287;SDS011;39172;45.550;12.072;2024-03-02T14:31:44;12.93;;;7.25;;
53287;SDS011;39172;45.550;12.072;2024-03-02T14:37:48;16.35;;;8.50;;
53287;SDS011;39172;45.550;12.072;2024-03-02T14:43:49;17.05;;;7.45;;
53287;SDS011;39172;45.550;12.072;2024-03-02T14:49:50;14.23;;;7.40;;
53287;SDS011;39172;45.550;12.072;2024-03-02T14:55:51;19.40;;;8.65;;
53287;SDS011;39172;45.550;12.072;2024-03-02T15:01:52;11.25;;;9.93;;
53287;SDS011;39172;45.550;12.072;2024-03-02T15:07:53;13.35;;;11.68;;
53287;SDS011;39172;45.550;12.072;2024-03-02T15:13:54;14.60;;;7.60;;
53287;SDS011;39172;45.550;12.072;2024-03-02T15:19:55;12.73;;;6.68;;
53287;SDS011;39172;45.550;12.072;2024-03-02T15:25:56;20.90;;;10.10;;
53287;SDS011;39172;45.550;12.072;2024-03-02T15:31:57;12.18;;;10.50;;
53287;SDS011;39172;45.550;12.072;2024-03-02T15:37:58;22.15;;;10.13;;
53287;SDS011;39172;45.550;12.072;2024-03-02T15:44:00;14.63;;;7.65;;
53287;SDS011;39172;45.550;12.072;2024-03-02T15:50:01;11.82;;;9.85;;
53287;SDS011;39172;45.550;12.072;2024-03-02T15:56:01;11.70;;;6.60;;
53287;SDS011;39172;45.550;12.072;2024-03-02T16:02:04;27.88;;;11.77;;
53287;SDS011;39172;45.550;12.072;2024-03-02T16:08:05;12.90;;;10.65;;
53287;SDS011;39172;45.550;12.072;2024-03-02T16:14:06;12.38;;;7.30;;
53287;SDS011;39172;45.550;12.072;2024-03-02T16:20:07;19.90;;;9.55;;
53287;SDS011;39172;45.550;12.072;2024-03-02T16:26:08;19.25;;;14.23;;
53287;SDS011;39172;45.550;12.072;2024-03-02T16:32:10;26.08;;;12.63;;
53287;SDS011;39172;45.550;12.072;2024-03-02T16:38:11;18.48;;;9.63;;
53287;SDS011;39172;45.550;12.072;2024-03-02T16:44:13;21.45;;;9.65;;
53287;SDS011;39172;45.550;12.072;2024-03-02T16:50:14;27.13;;;13.75;;
53287;SDS011;39172;45.550;12.072;2024-03-02T16:56:17;19.10;;;9.82;;
53287;SDS011;39172;45.550;12.072;2024-03-02T17:02:18;19.25;;;9.75;;
53287;SDS011;39172;45.550;12.072;2024-03-02T17:08:20;27.63;;;15.20;;
53287;SDS011;39172;45.550;12.072;2024-03-02T17:14:21;43.47;;;19.80;;
53287;SDS011;39172;45.550;12.072;2024-03-02T17:20:22;16.88;;;15.18;;
53287;SDS011;39172;45.550;12.072;2024-03-02T17:26:23;23.50;;;12.63;;
53287;SDS011;39172;45.550;12.072;2024-03-02T17:32:24;37.55;;;18.35;;
53287;SDS011;39172;45.550;12.072;2024-03-02T17:38:25;28.70;;;16.23;;
53287;SDS011;39172;45.550;12.072;2024-03-02T17:44:26;18.13;;;16.23;;
53287;SDS011;39172;45.550;12.072;2024-03-02T17:50:28;10.68;;;9.68;;
53287;SDS011;39172;45.550;12.072;2024-03-02T17:56:29;27.90;;;21.30;;
53287;SDS011;39172;45.550;12.072;2024-03-02T18:02:31;21.08;;;18.77;;
53287;SDS011;39172;45.550;12.072;2024-03-02T18:08:34;36.13;;;19.75;;
53287;SDS011;39172;45.550;12.072;2024-03-02T18:14:35;22.60;;;13.35;;
53287;SDS011;39172;45.550;12.072;2024-03-02T18:20:35;19.83;;;17.35;;
53287;SDS011;39172;45.550;12.072;2024-03-02T18:26:37;33.67;;;28.80;;
53287;SDS011;39172;45.550;12.072;2024-03-02T18:32:38;22.70;;;20.30;;
53287;SDS011;39172;45.550;12.072;2024-03-02T18:38:39;26.70;;;15.95;;
53287;SDS011;39172;45.550;12.072;2024-03-02T18:44:40;18.13;;;16.25;;
53287;SDS011;39172;45.550;12.072;2024-03-02T18:50:42;18.02;;;16.20;;
53287;SDS011;39172;45.550;12.072;2024-03-02T18:56:43;16.95;;;15.25;;
53287;SDS011;39172;45.550;12.072;2024-03-02T19:02:44;19.75;;;17.75;;
53287;SDS011;39172;45.550;12.072;2024-03-02T19:08:45;20.63;;;18.27;;
53287;SDS011;39172;45.550;12.072;2024-03-02T19:14:47;14.95;;;13.40;;
53287;SDS011;39172;45.550;12.072;2024-03-02T19:20:48;14.00;;;12.60;;
53287;SDS011;39172;45.550;12.072;2024-03-02T19:26:49;9.98;;;9.07;;
53287;SDS011;39172;45.550;12.072;2024-03-02T19:32:50;16.08;;;14.38;;
53287;SDS011;39172;45.550;12.072;2024-03-02T19:38:51;28.70;;;25.58;;
53287;SDS011;39172;45.550;12.072;2024-03-02T19:44:52;24.95;;;22.33;;
53287;SDS011;39172;45.550;12.072;2024-03-02T19:50:53;19.42;;;17.42;;
53287;SDS011;39172;45.550;12.072;2024-03-02T19:56:54;20.05;;;17.98;;
53287;SDS011;39172;45.550;12.072;2024-03-02T20:02:56;17.05;;;15.35;;
53287;SDS011;39172;45.550;12.072;2024-03-02T20:08:57;49.22;;;38.97;;
53287;SDS011;39172;45.550;12.072;2024-03-02T20:14:58;24.13;;;21.73;;
53287;SDS011;39172;45.550;12.072;2024-03-02T20:20:58;18.35;;;16.45;;
53287;SDS011;39172;45.550;12.072;2024-03-02T20:26:59;14.68;;;13.27;;
53287;SDS011;39172;45.550;12.072;2024-03-02T20:33:00;13.63;;;12.30;;
53287;SDS011;39172;45.550;12.072;2024-03-02T20:39:02;17.58;;;15.85;;
53287;SDS011;39172;45.550;12.072;2024-03-02T20:45:05;41.42;;;35.72;;
53287;SDS011;39172;45.550;12.072;2024-03-02T20:51:07;28.15;;;25.27;;
53287;SDS011;39172;45.550;12.072;2024-03-02T20:57:08;19.92;;;17.95;;
53287;SDS011;39172;45.550;12.072;2024-03-02T21:03:09;15.23;;;13.73;;
53287;SDS011;39172;45.550;12.072;2024-03-02T21:09:09;12.45;;;11.25;;
53287;SDS011;39172;45.550;12.072;2024-03-02T21:15:10;36.22;;;30.90;;
53287;SDS011;39172;45.550;12.072;2024-03-02T21:21:11;24.70;;;22.20;;
53287;SDS011;39172;45.550;12.072;2024-03-02T21:27:12;23.35;;;15.10;;
53287;SDS011;39172;45.550;12.072;2024-03-02T21:33:13;18.02;;;16.33;;
53287;SDS011;39172;45.550;12.072;2024-03-02T21:39:14;13.73;;;12.38;;
53287;SDS011;39172;45.550;12.072;2024-03-02T21:45:16;13.82;;;12.43;;
53287;SDS011;39172;45.550;12.072;2024-03-02T21:51:18;48.67;;;36.65;;
53287;SDS011;39172;45.550;12.072;2024-03-02T21:57:21;25.90;;;23.30;;
53287;SDS011;39172;45.550;12.072;2024-03-02T22:03:23;20.80;;;18.73;;
53287;SDS011;39172;45.550;12.072;2024-03-02T22:09:24;15.80;;;14.25;;
53287;SDS011;39172;45.550;12.072;2024-03-02T22:15:25;17.83;;;16.13;;
53287;SDS011;39172;45.550;12.072;2024-03-02T22:21:26;16.45;;;14.90;;
53287;SDS011;39172;45.550;12.072;2024-03-02T22:27:27;34.80;;;30.98;;
53287;SDS011;39172;45.550;12.072;2024-03-02T22:33:28;26.50;;;23.70;;
53287;SDS011;39172;45.550;12.072;2024-03-02T22:39:29;25.15;;;22.55;;
53287;SDS011;39172;45.550;12.072;2024-03-02T22:45:30;16.23;;;14.63;;
53287;SDS011;39172;45.550;12.072;2024-03-02T22:51:31;17.33;;;15.63;;
53287;SDS011;39172;45.550;12.072;2024-03-02T22:57:32;49.90;;;41.17;;
53287;SDS011;39172;45.550;12.072;2024-03-02T23:03:33;29.40;;;26.42;;
53287;SDS011;39172;45.550;12.072;2024-03-02T23:09:34;22.33;;;20.13;;
53287;SDS011;39172;45.550;12.072;2024-03-02T23:15:35;21.80;;;19.65;;
53287;SDS011;39172;45.550;12.072;2024-03-02T23:21:36;17.80;;;16.10;;
53287;SDS011;39172;45.550;12.072;2024-03-02T23:27:37;35.33;;;29.90;;
53287;SDS011;39172;45.550;12.072;2024-03-02T23:33:38;32.83;;;29.42;;
53287;SDS011;39172;45.550;12.072;2024-03-02T23:39:39;28.23;;;25.33;;
53287;SDS011;39172;45.550;12.072;2024-03-02T23:45:46;23.02;;;20.73;;
53287;SDS011;39172;45.550;12.072;2024-03-02T23:51:47;16.42;;;14.90;;
53287;SDS011;39172;45.550;12.072;2024-03-02T23:57:48;36.00;;;30.85;;
